sensor_id;sensor_type;location;lat;lon;timestamp;P1;durP1;ratioP1;P2;durP2;ratioP2
24102;SDS011;12278;53.058;9.028;2023-07-13T00:03:12;5.03;;;4.15;;
24102;SDS011;12278;53.058;9.028;2023-07-13T00:07:13;5.80;;;4.10;;
24102;SDS011;12278;53.058;9.028;2023-07-13T00:11:14;4.78;;;4.35;;
24102;SDS011;12278;53.058;9.028;2023-07-13T00:15:17;6.18;;;4.22;;
24102;SDS011;12278;53.058;9.028;2023-07-13T00:19:22;5.25;;;4.72;;
24102;SDS011;12278;53.058;9.028;2023-07-13T00:23:23;5.07;;;4.63;;
24102;SDS011;12278;53.058;9.028;2023-07-13T00:27:24;4.55;;;4.15;;
24102;SDS011;12278;53.058;9.028;2023-07-13T00:31:26;5.53;;;4.30;;
24102;SDS011;12278;53.058;9.028;2023-07-13T00:35:30;7.00;;;4.68;;
24102;SDS011;12278;53.058;9.028;2023-07-13T00:39:32;6.65;;;4.35;;
24102;SDS011;12278;53.058;9.028;2023-07-13T00:43:33;6.47;;;4.45;;
24102;SDS011;12278;53.058;9.028;2023-07-13T00:47:34;4.22;;;3.83;;
24102;SDS011;12278;53.058;9.028;2023-07-13T00:51:43;5.75;;;4.50;;
24102;SDS011;12278;53.058;9.028;2023-07-13T00:55:49;7.68;;;4.88;;
24102;SDS011;12278;53.058;9.028;2023-07-13T00:59:55;7.40;;;4.93;;
24102;SDS011;12278;53.058;9.028;2023-07-13T01:03:58;5.22;;;4.72;;
24102;SDS011;12278;53.058;9.028;2023-07-13T01:07:59;5.32;;;4.82;;
24102;SDS011;12278;53.058;9.028;2023-07-13T01:12:01;7.28;;;5.97;;
24102;SDS011;12278;53.058;9.028;2023-07-13T01:16:05;5.30;;;4.78;;
24102;SDS011;12278;53.058;9.028;2023-07-13T01:20:30;8.38;;;5.10;;
24102;SDS011;12278;53.058;9.028;2023-07-13T01:24:33;5.50;;;4.97;;
24102;SDS011;12278;53.058;9.028;2023-07-13T01:28:34;6.80;;;5.07;;
24102;SDS011;12278;53.058;9.028;2023-07-13T01:32:36;7.13;;;5.35;;
24102;SDS011;12278;53.058;9.028;2023-07-13T01:36:37;8.43;;;5.05;;
24102;SDS011;12278;53.058;9.028;2023-07-13T01:40:38;6.50;;;5.35;;
24102;SDS011;12278;53.058;9.028;2023-07-13T01:44:39;8.38;;;5.18;;
24102;SDS011;12278;53.058;9.028;2023-07-13T01:48:40;6.68;;;5.60;;
24102;SDS011;12278;53.058;9.028;2023-07-13T01:52:40;15.00;;;5.80;;
24102;SDS011;12278;53.058;9.028;2023-07-13T01:56:41;11.20;;;5.05;;
24102;SDS011;12278;53.058;9.028;2023-07-13T02:00:42;7.07;;;5.30;;
24102;SDS011;12278;53.058;9.028;2023-07-13T02:04:42;6.40;;;5.10;;
24102;SDS011;12278;53.058;9.028;2023-07-13T02:08:43;6.57;;;5.82;;
24102;SDS011;12278;53.058;9.028;2023-07-13T02:12:44;8.32;;;5.45;;
24102;SDS011;12278;53.058;9.028;2023-07-13T02:20:51;6.72;;;6.05;;
24102;SDS011;12278;53.058;9.028;2023-07-13T02:24:51;6.72;;;6.05;;
24102;SDS011;12278;53.058;9.028;2023-07-13T02:28:52;8.68;;;6.53;;
24102;SDS011;12278;53.058;9.028;2023-07-13T02:32:53;10.75;;;6.63;;
24102;SDS011;12278;53.058;9.028;2023-07-13T02:36:53;6.95;;;6.03;;
24102;SDS011;12278;53.058;9.028;2023-07-13T02:40:54;9.90;;;6.68;;
24102;SDS011;12278;53.058;9.028;2023-07-13T02:44:55;8.27;;;7.15;;
24102;SDS011;12278;53.058;9.028;2023-07-13T02:48:55;8.18;;;6.40;;
24102;SDS011;12278;53.058;9.028;2023-07-13T02:52:56;9.77;;;7.15;;
24102;SDS011;12278;53.058;9.028;2023-07-13T02:56:58;8.02;;;6.93;;
24102;SDS011;12278;53.058;9.028;2023-07-13T03:00:58;10.10;;;7.05;;
24102;SDS011;12278;53.058;9.028;2023-07-13T03:04:59;11.32;;;6.68;;
24102;SDS011;12278;53.058;9.028;2023-07-13T03:09:00;10.57;;;6.65;;
24102;SDS011;12278;53.058;9.028;2023-07-13T03:13:01;8.25;;;6.50;;
24102;SDS011;12278;53.058;9.028;2023-07-13T03:17:02;8.80;;;6.60;;
24102;SDS011;12278;53.058;9.028;2023-07-13T03:21:03;7.75;;;6.93;;
24102;SDS011;12278;53.058;9.028;2023-07-13T03:25:04;10.75;;;7.47;;
24102;SDS011;12278;53.058;9.028;2023-07-13T03:29:05;9.57;;;5.95;;
24102;SDS011;12278;53.058;9.028;2023-07-13T03:33:06;10.77;;;6.30;;
24102;SDS011;12278;53.058;9.028;2023-07-13T03:37:07;12.77;;;5.80;;
24102;SDS011;12278;53.058;9.028;2023-07-13T03:41:08;16.98;;;5.38;;
24102;SDS011;12278;53.058;9.028;2023-07-13T03:45:08;11.05;;;5.55;;
24102;SDS011;12278;53.058;9.028;2023-07-13T03:49:10;13.35;;;5.50;;
24102;SDS011;12278;53.058;9.028;2023-07-13T03:53:11;9.05;;;5.05;;
24102;SDS011;12278;53.058;9.028;2023-07-13T03:57:12;12.20;;;6.20;;
24102;SDS011;12278;53.058;9.028;2023-07-13T04:01:13;10.93;;;5.07;;
24102;SDS011;12278;53.058;9.028;2023-07-13T04:05:16;9.73;;;4.90;;
24102;SDS011;12278;53.058;9.028;2023-07-13T04:09:16;11.52;;;4.95;;
24102;SDS011;12278;53.058;9.028;2023-07-13T04:13:17;11.45;;;4.93;;
24102;SDS011;12278;53.058;9.028;2023-07-13T04:17:18;10.63;;;5.22;;
24102;SDS011;12278;53.058;9.028;2023-07-13T04:21:19;9.82;;;4.28;;
24102;SDS011;12278;53.058;9.028;2023-07-13T04:25:20;6.43;;;3.83;;
24102;SDS011;12278;53.058;9.028;2023-07-13T04:29:21;10.77;;;4.05;;
24102;SDS011;12278;53.058;9.028;2023-07-13T04:33:22;6.90;;;3.85;;
24102;SDS011;12278;53.058;9.028;2023-07-13T04:37:23;5.95;;;4.00;;
24102;SDS011;12278;53.058;9.028;2023-07-13T04:41:24;4.72;;;3.92;;
24102;SDS011;12278;53.058;9.028;2023-07-13T04:45:24;8.98;;;3.78;;
24102;SDS011;12278;53.058;9.028;2023-07-13T04:49:27;9.73;;;3.40;;
24102;SDS011;12278;53.058;9.028;2023-07-13T04:53:28;4.65;;;3.50;;
24102;SDS011;12278;53.058;9.028;2023-07-13T04:57:29;7.40;;;3.83;;
24102;SDS011;12278;53.058;9.028;2023-07-13T05:01:30;5.78;;;3.75;;
24102;SDS011;12278;53.058;9.028;2023-07-13T05:05:31;6.30;;;3.38;;
24102;SDS011;12278;53.058;9.028;2023-07-13T05:09:32;5.35;;;3.15;;
24102;SDS011;12278;53.058;9.028;2023-07-13T05:13:33;14.35;;;4.90;;
24102;SDS011;12278;53.058;9.028;2023-07-13T05:17:33;10.15;;;3.92;;
24102;SDS011;12278;53.058;9.028;2023-07-13T05:21:34;5.38;;;2.92;;
24102;SDS011;12278;53.058;9.028;2023-07-13T05:25:35;15.65;;;4.13;;
24102;SDS011;12278;53.058;9.028;2023-07-13T05:29:35;5.20;;;3.30;;
24102;SDS011;12278;53.058;9.028;2023-07-13T05:33:36;13.38;;;3.75;;
24102;SDS011;12278;53.058;9.028;2023-07-13T05:37:37;13.55;;;4.13;;
24102;SDS011;12278;53.058;9.028;2023-07-13T05:41:38;7.72;;;3.83;;
24102;SDS011;12278;53.058;9.028;2023-07-13T05:45:39;13.05;;;3.60;;
24102;SDS011;12278;53.058;9.028;2023-07-13T05:49:40;9.70;;;3.72;;
24102;SDS011;12278;53.058;9.028;2023-07-13T05:53:41;7.65;;;3.60;;
24102;SDS011;12278;53.058;9.028;2023-07-13T05:57:42;6.22;;;3.22;;
24102;SDS011;12278;53.058;9.028;2023-07-13T06:01:42;7.70;;;3.45;;
24102;SDS011;12278;53.058;9.028;2023-07-13T06:05:43;13.32;;;3.83;;
24102;SDS011;12278;53.058;9.028;2023-07-13T06:09:44;8.23;;;3.20;;
24102;SDS011;12278;53.058;9.028;2023-07-13T06:13:45;8.68;;;3.65;;
24102;SDS011;12278;53.058;9.028;2023-07-13T06:17:45;8.55;;;3.30;;
24102;SDS011;12278;53.058;9.028;2023-07-13T06:21:46;4.72;;;2.83;;
24102;SDS011;12278;53.058;9.028;2023-07-13T06:25:47;7.03;;;3.67;;
24102;SDS011;12278;53.058;9.028;2023-07-13T06:29:47;9.88;;;3.72;;
24102;SDS011;12278;53.058;9.028;2023-07-13T06:33:48;10.00;;;3.88;;
24102;SDS011;12278;53.058;9.028;2023-07-13T06:37:49;7.45;;;3.60;;
24102;SDS011;12278;53.058;9.028;2023-07-13T06:41:49;10.90;;;4.22;;
24102;SDS011;12278;53.058;9.028;2023-07-13T06:45:50;12.90;;;4.10;;
24102;SDS011;12278;53.058;9.028;2023-07-13T06:49:51;10.75;;;3.33;;
24102;SDS011;12278;53.058;9.028;2023-07-13T06:53:52;8.40;;;3.75;;
24102;SDS011;12278;53.058;9.028;2023-07-13T06:57:53;7.88;;;3.17;;
24102;SDS011;12278;53.058;9.028;2023-07-13T07:01:53;8.52;;;4.03;;
24102;SDS011;12278;53.058;9.028;2023-07-13T07:05:54;8.82;;;3.40;;
24102;SDS011;12278;53.058;9.028;2023-07-13T07:10:00;8.77;;;3.72;;
24102;SDS011;12278;53.058;9.028;2023-07-13T07:14:01;9.75;;;4.82;;
24102;SDS011;12278;53.058;9.028;2023-07-13T07:18:02;12.20;;;4.18;;
24102;SDS011;12278;53.058;9.028;2023-07-13T07:22:02;6.88;;;3.72;;
24102;SDS011;12278;53.058;9.028;2023-07-13T07:26:03;10.00;;;3.72;;
24102;SDS011;12278;53.058;9.028;2023-07-13T07:30:04;8.30;;;3.92;;
24102;SDS011;12278;53.058;9.028;2023-07-13T07:34:06;9.57;;;3.65;;
24102;SDS011;12278;53.058;9.028;2023-07-13T07:38:06;8.45;;;3.33;;
24102;SDS011;12278;53.058;9.028;2023-07-13T07:42:09;7.03;;;3.58;;
24102;SDS011;12278;53.058;9.028;2023-07-13T07:46:10;7.20;;;3.47;;
24102;SDS011;12278;53.058;9.028;2023-07-13T07:50:11;4.78;;;3.10;;
24102;SDS011;12278;53.058;9.028;2023-07-13T07:54:15;11.73;;;4.75;;
24102;SDS011;12278;53.058;9.028;2023-07-13T07:58:16;10.32;;;3.80;;
24102;SDS011;12278;53.058;9.028;2023-07-13T08:02:17;9.60;;;3.20;;
24102;SDS011;12278;53.058;9.028;2023-07-13T08:06:17;9.15;;;3.05;;
24102;SDS011;12278;53.058;9.028;2023-07-13T08:10:20;8.82;;;2.95;;
24102;SDS011;12278;53.058;9.028;2023-07-13T08:14:20;6.82;;;4.07;;
24102;SDS011;12278;53.058;9.028;2023-07-13T08:18:21;8.25;;;3.65;;
24102;SDS011;12278;53.058;9.028;2023-07-13T08:22:22;4.45;;;3.28;;
24102;SDS011;12278;53.058;9.028;2023-07-13T08:26:22;6.85;;;3.05;;
24102;SDS011;12278;53.058;9.028;2023-07-13T08:30:23;5.22;;;3.05;;
24102;SDS011;12278;53.058;9.028;2023-07-13T08:34:24;9.10;;;3.80;;
24102;SDS011;12278;53.058;9.028;2023-07-13T08:38:24;6.82;;;3.28;;
24102;SDS011;12278;53.058;9.028;2023-07-13T08:43:26;5.65;;;3.63;;
24102;SDS011;12278;53.058;9.028;2023-07-13T08:46:59;7.03;;;3.40;;
24102;SDS011;12278;53.058;9.028;2023-07-13T08:51:22;6.13;;;3.22;;
24102;SDS011;12278;53.058;9.028;2023-07-13T08:55:21;9.48;;;3.58;;
24102;SDS011;12278;53.058;9.028;2023-07-13T08:59:29;3.75;;;2.67;;
24102;SDS011;12278;53.058;9.028;2023-07-13T09:03:37;5.15;;;2.95;;
24102;SDS011;12278;53.058;9.028;2023-07-13T09:16:50;5.68;;;3.20;;
24102;SDS011;12278;53.058;9.028;2023-07-13T09:20:56;6.60;;;3.28;;
24102;SDS011;12278;53.058;9.028;2023-07-13T09:25:02;3.80;;;3.35;;
24102;SDS011;12278;53.058;9.028;2023-07-13T09:29:20;6.03;;;3.08;;
24102;SDS011;12278;53.058;9.028;2023-07-13T09:33:27;7.10;;;2.90;;
24102;SDS011;12278;53.058;9.028;2023-07-13T09:37:30;8.73;;;3.80;;
24102;SDS011;12278;53.058;9.028;2023-07-13T09:45:57;4.85;;;3.30;;
24102;SDS011;12278;53.058;9.028;2023-07-13T09:49:59;6.35;;;2.70;;
24102;SDS011;12278;53.058;9.028;2023-07-13T09:54:01;4.20;;;3.00;;
24102;SDS011;12278;53.058;9.028;2023-07-13T10:06:34;6.38;;;2.50;;
24102;SDS011;12278;53.058;9.028;2023-07-13T10:10:34;6.60;;;2.90;;
24102;SDS011;12278;53.058;9.028;2023-07-13T10:14:35;4.97;;;2.75;;
24102;SDS011;12278;53.058;9.028;2023-07-13T10:18:50;3.65;;;2.47;;
24102;SDS011;12278;53.058;9.028;2023-07-13T10:23:02;7.60;;;2.28;;
24102;SDS011;12278;53.058;9.028;2023-07-13T10:27:16;4.43;;;2.85;;
24102;SDS011;12278;53.058;9.028;2023-07-13T10:31:21;5.97;;;2.33;;
24102;SDS011;12278;53.058;9.028;2023-07-13T10:35:22;4.13;;;2.30;;
24102;SDS011;12278;53.058;9.028;2023-07-13T10:39:26;4.50;;;2.45;;
24102;SDS011;12278;53.058;9.028;2023-07-13T10:43:48;5.00;;;2.92;;
24102;SDS011;12278;53.058;9.028;2023-07-13T10:51:57;2.38;;;2.28;;
24102;SDS011;12278;53.058;9.028;2023-07-13T10:56:00;4.47;;;2.10;;
24102;SDS011;12278;53.058;9.028;2023-07-13T11:00:13;2.53;;;2.33;;
24102;SDS011;12278;53.058;9.028;2023-07-13T11:04:16;3.28;;;2.10;;
24102;SDS011;12278;53.058;9.028;2023-07-13T11:12:52;3.30;;;2.08;;
24102;SDS011;12278;53.058;9.028;2023-07-13T11:16:55;3.70;;;2.70;;
24102;SDS011;12278;53.058;9.028;2023-07-13T11:21:12;9.15;;;3.10;;
24102;SDS011;12278;53.058;9.028;2023-07-13T11:37:41;3.65;;;3.20;;
24102;SDS011;12278;53.058;9.028;2023-07-13T11:41:48;2.97;;;2.67;;
24102;SDS011;12278;53.058;9.028;2023-07-13T11:45:51;7.78;;;3.60;;
24102;SDS011;12278;53.058;9.028;2023-07-13T11:49:53;5.68;;;3.85;;
24102;SDS011;12278;53.058;9.028;2023-07-13T11:54:12;4.13;;;3.72;;
24102;SDS011;12278;53.058;9.028;2023-07-13T11:58:23;5.10;;;3.63;;
24102;SDS011;12278;53.058;9.028;2023-07-13T12:10:30;5.13;;;3.15;;
24102;SDS011;12278;53.058;9.028;2023-07-13T12:14:33;3.20;;;2.90;;
24102;SDS011;12278;53.058;9.028;2023-07-13T12:18:34;3.05;;;2.30;;
24102;SDS011;12278;53.058;9.028;2023-07-13T12:22:34;5.15;;;2.88;;
24102;SDS011;12278;53.058;9.028;2023-07-13T12:26:38;3.60;;;2.00;;
24102;SDS011;12278;53.058;9.028;2023-07-13T12:30:39;1.88;;;1.70;;
24102;SDS011;12278;53.058;9.028;2023-07-13T12:34:50;2.08;;;1.63;;
24102;SDS011;12278;53.058;9.028;2023-07-13T12:38:53;2.72;;;2.30;;
24102;SDS011;12278;53.058;9.028;2023-07-13T12:42:54;1.90;;;1.80;;
24102;SDS011;12278;53.058;9.028;2023-07-13T12:51:04;3.35;;;2.15;;
24102;SDS011;12278;53.058;9.028;2023-07-13T12:55:12;1.73;;;1.63;;
24102;SDS011;12278;53.058;9.028;2023-07-13T12:59:21;5.00;;;2.00;;
24102;SDS011;12278;53.058;9.028;2023-07-13T13:03:29;2.22;;;1.80;;
24102;SDS011;12278;53.058;9.028;2023-07-13T13:07:41;1.85;;;1.70;;
24102;SDS011;12278;53.058;9.028;2023-07-13T13:11:42;1.88;;;1.45;;
24102;SDS011;12278;53.058;9.028;2023-07-13T13:15:43;3.13;;;1.80;;
24102;SDS011;12278;53.058;9.028;2023-07-13T13:19:43;1.45;;;1.20;;
24102;SDS011;12278;53.058;9.028;2023-07-13T13:23:44;1.50;;;0.93;;
24102;SDS011;12278;53.058;9.028;2023-07-13T13:27:46;1.02;;;0.93;;
24102;SDS011;12278;53.058;9.028;2023-07-13T13:31:46;1.10;;;1.00;;
24102;SDS011;12278;53.058;9.028;2023-07-13T13:35:47;1.45;;;1.20;;
24102;SDS011;12278;53.058;9.028;2023-07-13T13:39:49;2.17;;;1.48;;
24102;SDS011;12278;53.058;9.028;2023-07-13T13:43:51;1.67;;;1.20;;
24102;SDS011;12278;53.058;9.028;2023-07-13T13:47:52;2.17;;;1.00;;
24102;SDS011;12278;53.058;9.028;2023-07-13T13:51:54;1.95;;;1.02;;
24102;SDS011;12278;53.058;9.028;2023-07-13T13:55:55;1.10;;;1.02;;
24102;SDS011;12278;53.058;9.028;2023-07-13T13:59:56;0.80;;;0.75;;
24102;SDS011;12278;53.058;9.028;2023-07-13T14:03:56;0.80;;;0.75;;
24102;SDS011;12278;53.058;9.028;2023-07-13T14:07:59;1.45;;;0.65;;
24102;SDS011;12278;53.058;9.028;2023-07-13T14:12:00;1.00;;;0.80;;
24102;SDS011;12278;53.058;9.028;2023-07-13T14:16:00;1.10;;;1.00;;
24102;SDS011;12278;53.058;9.028;2023-07-13T14:20:01;1.83;;;1.70;;
24102;SDS011;12278;53.058;9.028;2023-07-13T14:24:04;1.85;;;1.30;;
24102;SDS011;12278;53.058;9.028;2023-07-13T14:32:24;4.15;;;3.15;;
24102;SDS011;12278;53.058;9.028;2023-07-13T14:36:32;3.83;;;3.53;;
24102;SDS011;12278;53.058;9.028;2023-07-13T14:40:34;3.95;;;3.42;;
24102;SDS011;12278;53.058;9.028;2023-07-13T14:44:37;2.53;;;2.20;;
24102;SDS011;12278;53.058;9.028;2023-07-13T14:48:39;2.83;;;2.47;;
24102;SDS011;12278;53.058;9.028;2023-07-13T14:52:42;2.00;;;1.88;;
24102;SDS011;12278;53.058;9.028;2023-07-13T14:56:44;2.65;;;2.15;;
24102;SDS011;12278;53.058;9.028;2023-07-13T15:00:45;2.22;;;2.03;;
24102;SDS011;12278;53.058;9.028;2023-07-13T15:04:46;3.88;;;2.53;;
24102;SDS011;12278;53.058;9.028;2023-07-13T15:08:47;1.85;;;1.75;;
24102;SDS011;12278;53.058;9.028;2023-07-13T15:12:50;2.58;;;2.05;;
24102;SDS011;12278;53.058;9.028;2023-07-13T15:16:53;2.95;;;2.00;;
24102;SDS011;12278;53.058;9.028;2023-07-13T15:20:55;2.38;;;2.17;;
24102;SDS011;12278;53.058;9.028;2023-07-13T15:24:58;3.25;;;1.95;;
24102;SDS011;12278;53.058;9.028;2023-07-13T15:29:00;3.35;;;2.00;;
24102;SDS011;12278;53.058;9.028;2023-07-13T15:33:05;3.42;;;1.60;;
24102;SDS011;12278;53.058;9.028;2023-07-13T15:37:14;1.20;;;1.10;;
24102;SDS011;12278;53.058;9.028;2023-07-13T15:41:22;0.75;;;0.75;;
24102;SDS011;12278;53.058;9.028;2023-07-13T15:45:26;0.88;;;0.70;;
24102;SDS011;12278;53.058;9.028;2023-07-13T15:49:27;1.63;;;1.00;;
24102;SDS011;12278;53.058;9.028;2023-07-13T15:53:31;0.82;;;0.82;;
24102;SDS011;12278;53.058;9.028;2023-07-13T15:57:34;1.60;;;1.13;;
24102;SDS011;12278;53.058;9.028;2023-07-13T16:01:35;1.45;;;0.88;;
24102;SDS011;12278;53.058;9.028;2023-07-13T16:05:36;1.08;;;1.05;;
24102;SDS011;12278;53.058;9.028;2023-07-13T16:09:38;1.73;;;1.02;;
24102;SDS011;12278;53.058;9.028;2023-07-13T16:13:40;1.73;;;1.05;;
24102;SDS011;12278;53.058;9.028;2023-07-13T16:17:41;1.45;;;1.35;;
24102;SDS011;12278;53.058;9.028;2023-07-13T16:21:46;1.90;;;1.40;;
24102;SDS011;12278;53.058;9.028;2023-07-13T16:25:50;1.95;;;1.00;;
24102;SDS011;12278;53.058;9.028;2023-07-13T16:29:51;5.00;;;1.67;;
24102;SDS011;12278;53.058;9.028;2023-07-13T16:33:52;3.50;;;1.45;;
24102;SDS011;12278;53.058;9.028;2023-07-13T16:37:53;1.75;;;1.13;;
24102;SDS011;12278;53.058;9.028;2023-07-13T16:41:58;2.88;;;1.60;;
24102;SDS011;12278;53.058;9.028;2023-07-13T16:45:59;1.98;;;1.45;;
24102;SDS011;12278;53.058;9.028;2023-07-13T16:50:05;7.10;;;1.73;;
24102;SDS011;12278;53.058;9.028;2023-07-13T16:54:17;2.65;;;1.88;;
24102;SDS011;12278;53.058;9.028;2023-07-13T16:58:19;1.33;;;1.27;;
24102;SDS011;12278;53.058;9.028;2023-07-13T17:06:27;4.38;;;1.63;;
24102;SDS011;12278;53.058;9.028;2023-07-13T17:10:29;2.35;;;1.95;;
24102;SDS011;12278;53.058;9.028;2023-07-13T17:14:30;3.35;;;2.17;;
24102;SDS011;12278;53.058;9.028;2023-07-13T17:18:34;4.43;;;2.20;;
24102;SDS011;12278;53.058;9.028;2023-07-13T17:22:37;2.88;;;2.20;;
24102;SDS011;12278;53.058;9.028;2023-07-13T17:26:39;7.07;;;3.05;;
24102;SDS011;12278;53.058;9.028;2023-07-13T17:30:42;4.13;;;2.28;;
24102;SDS011;12278;53.058;9.028;2023-07-13T17:34:44;2.78;;;2.05;;
24102;SDS011;12278;53.058;9.028;2023-07-13T17:38:46;4.13;;;2.30;;
24102;SDS011;12278;53.058;9.028;2023-07-13T17:42:56;2.40;;;2.20;;
24102;SDS011;12278;53.058;9.028;2023-07-13T17:46:57;3.28;;;2.67;;
24102;SDS011;12278;53.058;9.028;2023-07-13T17:50:58;3.85;;;2.22;;
24102;SDS011;12278;53.058;9.028;2023-07-13T17:54:59;2.80;;;2.50;;
24102;SDS011;12278;53.058;9.028;2023-07-13T17:59:03;4.63;;;2.53;;
24102;SDS011;12278;53.058;9.028;2023-07-13T18:07:09;3.95;;;2.72;;
24102;SDS011;12278;53.058;9.028;2023-07-13T18:11:13;3.65;;;2.40;;
24102;SDS011;12278;53.058;9.028;2023-07-13T18:15:13;2.75;;;2.53;;
24102;SDS011;12278;53.058;9.028;2023-07-13T18:19:29;3.13;;;2.83;;
24102;SDS011;12278;53.058;9.028;2023-07-13T18:23:33;2.85;;;2.50;;
24102;SDS011;12278;53.058;9.028;2023-07-13T18:27:34;3.45;;;2.63;;
24102;SDS011;12278;53.058;9.028;2023-07-13T18:31:35;2.95;;;2.75;;
24102;SDS011;12278;53.058;9.028;2023-07-13T18:35:37;4.97;;;3.28;;
24102;SDS011;12278;53.058;9.028;2023-07-13T18:39:38;4.15;;;2.70;;
24102;SDS011;12278;53.058;9.028;2023-07-13T18:43:38;2.55;;;2.35;;
24102;SDS011;12278;53.058;9.028;2023-07-13T18:47:40;3.35;;;2.30;;
24102;SDS011;12278;53.058;9.028;2023-07-13T18:51:42;4.72;;;3.25;;
24102;SDS011;12278;53.058;9.028;2023-07-13T18:55:43;3.65;;;2.92;;
24102;SDS011;12278;53.058;9.028;2023-07-13T18:59:44;3.25;;;2.60;;
24102;SDS011;12278;53.058;9.028;2023-07-13T19:03:45;3.60;;;3.00;;
24102;SDS011;12278;53.058;9.028;2023-07-13T19:07:46;3.05;;;2.60;;
24102;SDS011;12278;53.058;9.028;2023-07-13T19:11:47;2.50;;;2.30;;
24102;SDS011;12278;53.058;9.028;2023-07-13T19:15:48;5.25;;;3.30;;
24102;SDS011;12278;53.058;9.028;2023-07-13T19:19:49;2.97;;;2.70;;
24102;SDS011;12278;53.058;9.028;2023-07-13T19:23:49;4.22;;;3.17;;
24102;SDS011;12278;53.058;9.028;2023-07-13T19:27:51;3.08;;;2.88;;
24102;SDS011;12278;53.058;9.028;2023-07-13T19:31:58;3.55;;;3.25;;
24102;SDS011;12278;53.058;9.028;2023-07-13T19:35:58;3.40;;;2.90;;
24102;SDS011;12278;53.058;9.028;2023-07-13T19:40:04;3.00;;;2.75;;
24102;SDS011;12278;53.058;9.028;2023-07-13T19:44:14;4.55;;;2.55;;
24102;SDS011;12278;53.058;9.028;2023-07-13T19:48:16;3.60;;;2.35;;
24102;SDS011;12278;53.058;9.028;2023-07-13T19:52:20;3.28;;;2.60;;
24102;SDS011;12278;53.058;9.028;2023-07-13T19:56:25;2.90;;;2.70;;
24102;SDS011;12278;53.058;9.028;2023-07-13T20:00:27;3.20;;;2.90;;
24102;SDS011;12278;53.058;9.028;2023-07-13T20:04:28;3.10;;;2.90;;
24102;SDS011;12278;53.058;9.028;2023-07-13T20:08:38;4.82;;;3.50;;
24102;SDS011;12278;53.058;9.028;2023-07-13T20:12:40;6.53;;;3.60;;
24102;SDS011;12278;53.058;9.028;2023-07-13T20:16:41;3.25;;;3.00;;
24102;SDS011;12278;53.058;9.028;2023-07-13T20:20:42;4.13;;;3.17;;
24102;SDS011;12278;53.058;9.028;2023-07-13T20:24:45;6.00;;;2.92;;
24102;SDS011;12278;53.058;9.028;2023-07-13T20:28:47;4.18;;;3.65;;
24102;SDS011;12278;53.058;9.028;2023-07-13T20:32:47;3.17;;;2.80;;
24102;SDS011;12278;53.058;9.028;2023-07-13T20:36:48;4.55;;;3.40;;
24102;SDS011;12278;53.058;9.028;2023-07-13T20:40:50;3.63;;;2.95;;
24102;SDS011;12278;53.058;9.028;2023-07-13T20:44:52;3.63;;;2.92;;
24102;SDS011;12278;53.058;9.028;2023-07-13T20:48:52;4.53;;;3.80;;
24102;SDS011;12278;53.058;9.028;2023-07-13T20:52:54;3.60;;;3.30;;
24102;SDS011;12278;53.058;9.028;2023-07-13T20:56:57;4.13;;;3.25;;
24102;SDS011;12278;53.058;9.028;2023-07-13T21:00:58;3.55;;;3.25;;
24102;SDS011;12278;53.058;9.028;2023-07-13T21:05:11;4.70;;;3.35;;
24102;SDS011;12278;53.058;9.028;2023-07-13T21:09:20;3.80;;;3.50;;
24102;SDS011;12278;53.058;9.028;2023-07-13T21:13:21;4.32;;;3.15;;
24102;SDS011;12278;53.058;9.028;2023-07-13T21:17:22;5.30;;;2.90;;
24102;SDS011;12278;53.058;9.028;2023-07-13T21:21:23;2.95;;;2.75;;
24102;SDS011;12278;53.058;9.028;2023-07-13T21:25:26;4.00;;;2.80;;
24102;SDS011;12278;53.058;9.028;2023-07-13T21:29:28;2.80;;;2.60;;
24102;SDS011;12278;53.058;9.028;2023-07-13T21:33:29;3.20;;;2.90;;
24102;SDS011;12278;53.058;9.028;2023-07-13T21:37:30;3.15;;;2.85;;
24102;SDS011;12278;53.058;9.028;2023-07-13T21:41:32;3.53;;;3.17;;
24102;SDS011;12278;53.058;9.028;2023-07-13T21:45:34;3.38;;;3.08;;
24102;SDS011;12278;53.058;9.028;2023-07-13T21:49:35;3.55;;;3.22;;
24102;SDS011;12278;53.058;9.028;2023-07-13T21:53:36;4.97;;;3.53;;
24102;SDS011;12278;53.058;9.028;2023-07-13T21:57:37;4.95;;;3.42;;
24102;SDS011;12278;53.058;9.028;2023-07-13T22:01:37;4.60;;;3.60;;
24102;SDS011;12278;53.058;9.028;2023-07-13T22:05:38;6.63;;;3.70;;
24102;SDS011;12278;53.058;9.028;2023-07-13T22:09:38;9.32;;;4.07;;
24102;SDS011;12278;53.058;9.028;2023-07-13T22:13:40;7.13;;;4.00;;
24102;SDS011;12278;53.058;9.028;2023-07-13T22:17:41;5.30;;;3.67;;
24102;SDS011;12278;53.058;9.028;2023-07-13T22:21:47;4.63;;;3.88;;
24102;SDS011;12278;53.058;9.028;2023-07-13T22:25:48;4.13;;;3.72;;
24102;SDS011;12278;53.058;9.028;2023-07-13T22:29:50;6.70;;;4.38;;
24102;SDS011;12278;53.058;9.028;2023-07-13T22:33:51;5.50;;;3.72;;
24102;SDS011;12278;53.058;9.028;2023-07-13T22:37:51;6.80;;;4.43;;
24102;SDS011;12278;53.058;9.028;2023-07-13T22:41:55;4.78;;;4.28;;
24102;SDS011;12278;53.058;9.028;2023-07-13T22:45:59;5.72;;;4.30;;
24102;SDS011;12278;53.058;9.028;2023-07-13T22:50:08;4.75;;;4.00;;
24102;SDS011;12278;53.058;9.028;2023-07-13T22:54:14;8.43;;;4.28;;
24102;SDS011;12278;53.058;9.028;2023-07-13T22:58:16;6.55;;;4.50;;
24102;SDS011;12278;53.058;9.028;2023-07-13T23:02:18;4.70;;;4.00;;
24102;SDS011;12278;53.058;9.028;2023-07-13T23:06:20;6.10;;;4.35;;
24102;SDS011;12278;53.058;9.028;2023-07-13T23:10:26;6.43;;;4.40;;
24102;SDS011;12278;53.058;9.028;2023-07-13T23:14:27;5.75;;;4.40;;
24102;SDS011;12278;53.058;9.028;2023-07-13T23:18:28;5.20;;;4.70;;
24102;SDS011;12278;53.058;9.028;2023-07-13T23:22:29;7.13;;;4.75;;
24102;SDS011;12278;53.058;9.028;2023-07-13T23:26:29;4.80;;;4.32;;
24102;SDS011;12278;53.058;9.028;2023-07-13T23:30:30;4.50;;;4.00;;
24102;SDS011;12278;53.058;9.028;2023-07-13T23:34:32;8.25;;;5.00;;
24102;SDS011;12278;53.058;9.028;2023-07-13T23:38:32;7.78;;;4.63;;
24102;SDS011;12278;53.058;9.028;2023-07-13T23:42:33;8.02;;;4.45;;
24102;SDS011;12278;53.058;9.028;2023-07-13T23:46:41;5.03;;;4.53;;
24102;SDS011;12278;53.058;9.028;2023-07-13T23:50:52;6.00;;;4.82;;
24102;SDS011;12278;53.058;9.028;2023-07-13T23:54:53;9.45;;;4.75;;
24102;SDS011;12278;53.058;9.028;2023-07-13T23:58:53;5.22;;;4.35;;
